createdAt,value
2022-12-25T00:00:02.319Z,6.60
2022-12-25T00:02:33.747Z,6.53
2022-12-25T00:05:02.928Z,6.62
2022-12-25T00:07:32.513Z,6.66
2022-12-25T00:10:01.566Z,6.78
2022-12-25T00:12:28.134Z,6.68
2022-12-25T00:14:54.683Z,6.74
2022-12-25T00:17:23.446Z,6.74
2022-12-25T00:19:50.829Z,6.65
2022-12-25T00:22:17.406Z,6.67
2022-12-25T00:24:44.249Z,6.63
2022-12-25T00:27:13.247Z,6.64
2022-12-25T00:29:42.395Z,6.62
2022-12-25T00:32:09.572Z,6.64
2022-12-25T00:34:36.106Z,6.60
2022-12-25T00:37:02.769Z,6.59
2022-12-25T00:39:31.737Z,6.70
2022-12-25T00:42:16.785Z,6.85
2022-12-25T00:44:48.443Z,6.86
2022-12-25T00:47:15.879Z,6.89
2022-12-25T00:49:42.692Z,6.87
2022-12-25T00:52:12.187Z,6.83
2022-12-25T00:54:41.117Z,6.69
2022-12-25T00:57:07.680Z,6.49
2022-12-25T00:59:34.790Z,6.57
2022-12-25T01:02:21.963Z,6.56
2022-12-25T01:04:52.809Z,6.53
2022-12-25T01:07:25.855Z,6.61
2022-12-25T01:10:11.442Z,6.62
2022-12-25T01:12:40.826Z,6.59
2022-12-25T01:15:11.890Z,6.62
2022-12-25T01:17:38.422Z,6.69
2022-12-25T01:20:05.808Z,6.67
2022-12-25T01:22:32.361Z,6.76
2022-12-25T01:25:01.503Z,6.60
2022-12-25T01:27:28.073Z,6.66
2022-12-25T01:29:56.837Z,6.77
2022-12-25T01:32:23.685Z,6.58
2022-12-25T01:34:56.209Z,6.43
2022-12-25T01:37:24.734Z,6.61
2022-12-25T01:39:51.721Z,6.71
2022-12-25T01:42:23.705Z,6.51
2022-12-25T01:44:50.490Z,6.44
2022-12-25T01:47:20.278Z,6.67
2022-12-25T01:49:49.999Z,6.75
2022-12-25T01:52:24.595Z,6.78
2022-12-25T01:55:09.187Z,6.76
2022-12-25T01:57:38.866Z,6.72
2022-12-25T02:00:10.379Z,6.67
2022-12-25T02:02:41.652Z,6.60
2022-12-25T02:05:16.052Z,6.64
2022-12-25T02:07:43.112Z,6.69
2022-12-25T02:10:13.051Z,6.73
2022-12-25T02:12:43.520Z,6.81
2022-12-25T02:15:16.968Z,6.89
2022-12-25T02:17:45.928Z,6.85
2022-12-25T02:20:36.135Z,6.85
2022-12-25T02:23:24.076Z,6.79
2022-12-25T02:26:00.086Z,6.83
2022-12-25T02:28:36.181Z,6.62
2022-12-25T02:31:17.827Z,6.58
2022-12-25T02:34:04.986Z,6.21
2022-12-25T02:36:47.888Z,6.42
2022-12-25T02:39:56.283Z,6.40
2022-12-25T02:43:09.182Z,6.51
2022-12-25T02:46:02.968Z,6.19
2022-12-25T02:48:51.427Z,6.25
2022-12-25T02:51:40.815Z,6.21
2022-12-25T02:54:31.180Z,6.39
2022-12-25T02:57:20.449Z,6.38
2022-12-25T03:00:09.092Z,6.39
2022-12-25T03:03:00.433Z,6.23
2022-12-25T03:05:50.838Z,6.06
2022-12-25T03:08:44.045Z,6.19
2022-12-25T03:11:34.017Z,6.13
2022-12-25T03:14:26.089Z,6.20
2022-12-25T03:17:01.603Z,6.22
2022-12-25T03:19:53.289Z,6.10
2022-12-25T03:22:50.276Z,6.19
2022-12-25T03:25:36.794Z,5.94
2022-12-25T03:28:06.728Z,6.09
2022-12-25T03:31:05.705Z,6.21
2022-12-25T03:34:16.047Z,6.26
2022-12-25T03:37:17.334Z,6.22
2022-12-25T03:39:56.217Z,6.29
2022-12-25T03:42:49.496Z,6.29
2022-12-25T03:45:45.262Z,6.20
2022-12-25T03:48:13.201Z,6.20
2022-12-25T03:51:10.728Z,6.08
2022-12-25T03:54:10.074Z,6.09
2022-12-25T03:56:57.134Z,5.99
2022-12-25T03:59:43.264Z,6.03
2022-12-25T04:02:29.567Z,6.00
2022-12-25T04:05:17.269Z,6.00
2022-12-25T04:08:02.779Z,6.08
2022-12-25T04:10:48.095Z,6.08
2022-12-25T04:13:34.490Z,6.15
2022-12-25T04:16:20.239Z,6.07
2022-12-25T04:19:05.702Z,6.01
2022-12-25T04:21:53.527Z,6.05
2022-12-25T04:24:41.217Z,6.12
2022-12-25T04:27:26.735Z,6.11
2022-12-25T04:30:14.516Z,6.27
2022-12-25T04:32:59.817Z,6.29
2022-12-25T04:35:47.764Z,6.20
2022-12-25T04:38:14.609Z,6.13
2022-12-25T04:40:41.628Z,6.16
2022-12-25T04:43:10.726Z,6.21
2022-12-25T04:45:40.364Z,6.24
2022-12-25T04:48:06.974Z,6.30
2022-12-25T04:50:35.862Z,6.22
2022-12-25T04:53:02.563Z,6.25
2022-12-25T04:55:31.545Z,6.25
2022-12-25T04:57:58.183Z,6.22
2022-12-25T05:00:27.214Z,6.16
2022-12-25T05:02:54.061Z,5.79
2022-12-25T05:05:23.163Z,6.00
2022-12-25T05:07:54.685Z,6.08
2022-12-25T05:10:26.432Z,6.14
2022-12-25T05:12:53.067Z,6.16
2022-12-25T05:15:19.739Z,6.29
2022-12-25T05:17:46.415Z,6.23
2022-12-25T05:20:15.360Z,6.09
2022-12-25T05:22:42.270Z,6.07
2022-12-25T05:25:09.073Z,6.13
2022-12-25T05:27:35.706Z,6.16
2022-12-25T05:30:03.389Z,6.18
2022-12-25T05:32:31.640Z,6.16
2022-12-25T05:35:03.406Z,6.18
2022-12-25T05:37:35.307Z,6.14
2022-12-25T05:40:04.871Z,6.19
2022-12-25T05:42:34.514Z,6.18
2022-12-25T05:45:03.929Z,6.16
2022-12-25T05:47:30.544Z,5.95
2022-12-25T05:49:59.966Z,5.82
2022-12-25T05:52:30.725Z,5.81
2022-12-25T05:55:02.346Z,5.80
2022-12-25T05:57:32.313Z,5.76
2022-12-25T06:00:01.264Z,5.78
2022-12-25T06:02:31.227Z,5.75
2022-12-25T06:04:58.115Z,5.70
2022-12-25T06:07:25.134Z,5.72
2022-12-25T06:09:54.200Z,5.84
2022-12-25T06:12:21.237Z,5.67
2022-12-25T06:14:47.871Z,5.72
2022-12-25T06:17:14.634Z,5.83
2022-12-25T06:19:42.821Z,5.84
2022-12-25T06:22:09.498Z,5.73
2022-12-25T06:24:41.295Z,5.63
2022-12-25T06:27:10.136Z,5.46
2022-12-25T06:29:39.173Z,5.51
2022-12-25T06:32:08.140Z,5.47
2022-12-25T06:34:35.092Z,5.54
2022-12-25T06:37:04.149Z,5.37
2022-12-25T06:39:30.879Z,5.47
2022-12-25T06:42:00.010Z,5.55
2022-12-25T06:44:28.957Z,5.65
2022-12-25T06:46:55.729Z,5.68
2022-12-25T06:49:27.087Z,5.64
2022-12-25T06:51:56.075Z,5.62
2022-12-25T06:54:25.105Z,5.68
2022-12-25T06:56:51.689Z,5.68
2022-12-25T06:59:20.629Z,5.58
2022-12-25T07:01:54.772Z,5.42
2022-12-25T07:04:25.548Z,5.19
2022-12-25T07:06:55.353Z,5.02
2022-12-25T07:09:24.462Z,5.04
2022-12-25T07:11:53.457Z,5.06
2022-12-25T07:14:24.495Z,4.85
2022-12-25T07:16:51.681Z,5.03
2022-12-25T07:19:20.966Z,5.20
2022-12-25T07:21:50.191Z,5.30
2022-12-25T07:24:20.921Z,5.38
2022-12-25T07:26:47.988Z,5.10
2022-12-25T07:29:17.998Z,5.34
2022-12-25T07:31:45.050Z,5.86
2022-12-25T07:34:11.974Z,5.77
2022-12-25T07:36:38.677Z,5.82
2022-12-25T07:39:05.918Z,5.77
2022-12-25T07:41:32.720Z,5.85
2022-12-25T07:44:01.758Z,5.88
